sensor_id;sensor_type;location;lat;lon;timestamp;pressure;altitude;pressure_sealevel;temperature;humidity
57114;BME280;42994;51.606;9.988;2023-04-24T00:00:59;97676.44;;;11.09;100.00
57114;BME280;42994;51.606;9.988;2023-04-24T00:03:27;97674.59;;;11.10;100.00
57114;BME280;42994;51.606;9.988;2023-04-24T00:05:54;97682.03;;;11.08;100.00
57114;BME280;42994;51.606;9.988;2023-04-24T00:08:22;97676.56;;;11.03;100.00
57114;BME280;42994;51.606;9.988;2023-04-24T00:10:49;97685.78;;;11.07;100.00
57114;BME280;42994;51.606;9.988;2023-04-24T00:13:18;97686.06;;;10.99;100.00
57114;BME280;42994;51.606;9.988;2023-04-24T00:15:44;97688.53;;;11.00;100.00
57114;BME280;42994;51.606;9.988;2023-04-24T00:18:11;97683.31;;;11.05;100.00
57114;BME280;42994;51.606;9.988;2023-04-24T00:20:37;97684.00;;;11.01;100.00
57114;BME280;42994;51.606;9.988;2023-04-24T00:23:04;97684.00;;;11.01;100.00
57114;BME280;42994;51.606;9.988;2023-04-24T00:25:32;97686.34;;;11.09;100.00
57114;BME280;42994;51.606;9.988;2023-04-24T00:27:59;97687.34;;;10.96;100.00
57114;BME280;42994;51.606;9.988;2023-04-24T00:30:26;97681.78;;;10.98;100.00
57114;BME280;42994;51.606;9.988;2023-04-24T00:32:52;97704.25;;;10.96;100.00
57114;BME280;42994;51.606;9.988;2023-04-24T00:35:19;97709.25;;;10.93;100.00
57114;BME280;42994;51.606;9.988;2023-04-24T00:37:46;97705.16;;;10.90;100.00
57114;BME280;42994;51.606;9.988;2023-04-24T00:40:12;97700.41;;;10.74;100.00
57114;BME280;42994;51.606;9.988;2023-04-24T00:42:41;97686.78;;;10.75;100.00
57114;BME280;42994;51.606;9.988;2023-04-24T00:45:08;97691.94;;;10.77;100.00
57114;BME280;42994;51.606;9.988;2023-04-24T00:47:35;97689.69;;;10.74;100.00
57114;BME280;42994;51.606;9.988;2023-04-24T00:50:02;97684.34;;;10.74;100.00
57114;BME280;42994;51.606;9.988;2023-04-24T00:52:29;97679.19;;;10.72;100.00
57114;BME280;42994;51.606;9.988;2023-04-24T00:54:57;97676.75;;;10.71;100.00
57114;BME280;42994;51.606;9.988;2023-04-24T00:57:24;97683.28;;;10.56;100.00
57114;BME280;42994;51.606;9.988;2023-04-24T00:59:52;97682.41;;;10.63;100.00
57114;BME280;42994;51.606;9.988;2023-04-24T01:02:21;97681.69;;;10.55;100.00
57114;BME280;42994;51.606;9.988;2023-04-24T01:04:50;97689.50;;;10.57;100.00
57114;BME280;42994;51.606;9.988;2023-04-24T01:07:18;97671.34;;;10.59;100.00
57114;BME280;42994;51.606;9.988;2023-04-24T01:09:47;97673.06;;;10.53;100.00
57114;BME280;42994;51.606;9.988;2023-04-24T01:12:17;97671.94;;;10.43;100.00
57114;BME280;42994;51.606;9.988;2023-04-24T01:14:44;97671.56;;;10.39;100.00
57114;BME280;42994;51.606;9.988;2023-04-24T01:17:13;97670.66;;;10.45;100.00
57114;BME280;42994;51.606;9.988;2023-04-24T01:19:40;97672.31;;;10.46;100.00
57114;BME280;42994;51.606;9.988;2023-04-24T01:22:13;97667.69;;;10.35;100.00
57114;BME280;42994;51.606;9.988;2023-04-24T01:24:40;97660.84;;;10.39;100.00
57114;BME280;42994;51.606;9.988;2023-04-24T01:27:07;97657.31;;;10.38;100.00
57114;BME280;42994;51.606;9.988;2023-04-24T01:29:35;97659.16;;;10.19;100.00
57114;BME280;42994;51.606;9.988;2023-04-24T01:32:02;97645.66;;;10.33;100.00
57114;BME280;42994;51.606;9.988;2023-04-24T01:34:30;97649.84;;;10.22;100.00
57114;BME280;42994;51.606;9.988;2023-04-24T01:36:57;97641.94;;;10.34;100.00
57114;BME280;42994;51.606;9.988;2023-04-24T01:39:25;97653.66;;;10.14;100.00
57114;BME280;42994;51.606;9.988;2023-04-24T01:41:54;97647.06;;;10.17;100.00
57114;BME280;42994;51.606;9.988;2023-04-24T01:44:21;97643.53;;;9.98;100.00
57114;BME280;42994;51.606;9.988;2023-04-24T01:46:48;97643.63;;;10.10;100.00
57114;BME280;42994;51.606;9.988;2023-04-24T01:49:14;97643.47;;;10.05;100.00
57114;BME280;42994;51.606;9.988;2023-04-24T01:51:41;97650.09;;;10.02;100.00
57114;BME280;42994;51.606;9.988;2023-04-24T01:54:08;97638.91;;;10.05;100.00
57114;BME280;42994;51.606;9.988;2023-04-24T01:56:36;97637.75;;;10.01;100.00
57114;BME280;42994;51.606;9.988;2023-04-24T01:59:07;97634.47;;;9.99;100.00
57114;BME280;42994;51.606;9.988;2023-04-24T02:01:36;97639.66;;;9.94;100.00
57114;BME280;42994;51.606;9.988;2023-04-24T02:04:03;97635.28;;;9.99;100.00
57114;BME280;42994;51.606;9.988;2023-04-24T02:06:30;97632.81;;;9.98;100.00
57114;BME280;42994;51.606;9.988;2023-04-24T02:08:59;97630.13;;;9.98;100.00
57114;BME280;42994;51.606;9.988;2023-04-24T02:11:27;97629.47;;;9.84;100.00
57114;BME280;42994;51.606;9.988;2023-04-24T02:13:55;97634.59;;;9.86;100.00
57114;BME280;42994;51.606;9.988;2023-04-24T02:16:22;97627.59;;;9.85;100.00
57114;BME280;42994;51.606;9.988;2023-04-24T02:18:49;97626.78;;;9.84;100.00
57114;BME280;42994;51.606;9.988;2023-04-24T02:21:16;97625.88;;;9.72;100.00
57114;BME280;42994;51.606;9.988;2023-04-24T02:23:43;97614.44;;;9.83;100.00
57114;BME280;42994;51.606;9.988;2023-04-24T02:26:12;97620.31;;;9.73;100.00
57114;BME280;42994;51.606;9.988;2023-04-24T02:28:38;97622.31;;;9.78;100.00
57114;BME280;42994;51.606;9.988;2023-04-24T02:31:06;97614.28;;;9.78;100.00
57114;BME280;42994;51.606;9.988;2023-04-24T02:33:33;97621.88;;;9.81;100.00
57114;BME280;42994;51.606;9.988;2023-04-24T02:36:00;97630.13;;;9.79;100.00
57114;BME280;42994;51.606;9.988;2023-04-24T02:38:28;97621.13;;;9.92;100.00
57114;BME280;42994;51.606;9.988;2023-04-24T02:40:54;97631.31;;;9.84;100.00
57114;BME280;42994;51.606;9.988;2023-04-24T02:43:21;97629.38;;;9.72;100.00
57114;BME280;42994;51.606;9.988;2023-04-24T02:45:48;97633.22;;;9.76;100.00
57114;BME280;42994;51.606;9.988;2023-04-24T02:48:16;97630.50;;;9.83;100.00
57114;BME280;42994;51.606;9.988;2023-04-24T02:50:43;97631.09;;;9.85;100.00
57114;BME280;42994;51.606;9.988;2023-04-24T02:53:10;97628.75;;;9.70;100.00
57114;BME280;42994;51.606;9.988;2023-04-24T02:55:37;97622.97;;;9.73;100.00
57114;BME280;42994;51.606;9.988;2023-04-24T02:58:04;97622.44;;;9.65;100.00
57114;BME280;42994;51.606;9.988;2023-04-24T03:00:31;97616.72;;;9.61;100.00
57114;BME280;42994;51.606;9.988;2023-04-24T03:02:57;97606.91;;;9.55;100.00
57114;BME280;42994;51.606;9.988;2023-04-24T03:05:25;97608.94;;;9.02;100.00
57114;BME280;42994;51.606;9.988;2023-04-24T03:07:52;97602.41;;;9.23;100.00
57114;BME280;42994;51.606;9.988;2023-04-24T03:10:20;97614.38;;;9.21;100.00
57114;BME280;42994;51.606;9.988;2023-04-24T03:12:47;97595.47;;;9.41;100.00
57114;BME280;42994;51.606;9.988;2023-04-24T03:15:14;97598.44;;;9.33;100.00
57114;BME280;42994;51.606;9.988;2023-04-24T03:17:41;97593.84;;;9.40;100.00
57114;BME280;42994;51.606;9.988;2023-04-24T03:20:08;97583.97;;;9.40;100.00
57114;BME280;42994;51.606;9.988;2023-04-24T03:22:37;97589.81;;;9.31;100.00
57114;BME280;42994;51.606;9.988;2023-04-24T03:25:07;97588.06;;;9.18;100.00
57114;BME280;42994;51.606;9.988;2023-04-24T03:27:34;97578.72;;;9.27;100.00
57114;BME280;42994;51.606;9.988;2023-04-24T03:30:07;97585.72;;;9.28;100.00
57114;BME280;42994;51.606;9.988;2023-04-24T03:32:51;97574.00;;;9.29;100.00
57114;BME280;42994;51.606;9.988;2023-04-24T03:35:23;97571.47;;;9.34;100.00
57114;BME280;42994;51.606;9.988;2023-04-24T03:37:52;97564.78;;;9.43;100.00
57114;BME280;42994;51.606;9.988;2023-04-24T03:40:54;97564.78;;;9.43;100.00
57114;BME280;42994;51.606;9.988;2023-04-24T03:43:59;97554.47;;;9.47;100.00
57114;BME280;42994;51.606;9.988;2023-04-24T03:46:26;97560.19;;;9.51;100.00
57114;BME280;42994;51.606;9.988;2023-04-24T03:48:57;97552.63;;;9.48;100.00
57114;BME280;42994;51.606;9.988;2023-04-24T03:51:28;97547.88;;;9.50;100.00
57114;BME280;42994;51.606;9.988;2023-04-24T03:54:03;97547.47;;;9.53;100.00
57114;BME280;42994;51.606;9.988;2023-04-24T03:56:33;97555.22;;;9.54;100.00
57114;BME280;42994;51.606;9.988;2023-04-24T03:59:01;97544.78;;;9.53;100.00
57114;BME280;42994;51.606;9.988;2023-04-24T04:01:27;97548.63;;;9.57;100.00
57114;BME280;42994;51.606;9.988;2023-04-24T04:04:01;97547.47;;;9.53;100.00
57114;BME280;42994;51.606;9.988;2023-04-24T04:06:29;97547.47;;;9.53;100.00
57114;BME280;42994;51.606;9.988;2023-04-24T04:08:58;97553.03;;;9.51;100.00
57114;BME280;42994;51.606;9.988;2023-04-24T04:11:26;97549.50;;;9.51;100.00
57114;BME280;42994;51.606;9.988;2023-04-24T04:13:53;97555.31;;;9.48;100.00
57114;BME280;42994;51.606;9.988;2023-04-24T04:16:21;97554.72;;;9.46;100.00
57114;BME280;42994;51.606;9.988;2023-04-24T04:18:50;97548.91;;;9.49;100.00
57114;BME280;42994;51.606;9.988;2023-04-24T04:21:17;97553.44;;;9.48;100.00
57114;BME280;42994;51.606;9.988;2023-04-24T04:23:44;97553.63;;;9.53;100.00
57114;BME280;42994;51.606;9.988;2023-04-24T04:26:18;97556.06;;;9.55;100.00
57114;BME280;42994;51.606;9.988;2023-04-24T04:29:05;97552.81;;;9.53;100.00
57114;BME280;42994;51.606;9.988;2023-04-24T04:31:33;97551.16;;;9.52;100.00
57114;BME280;42994;51.606;9.988;2023-04-24T04:34:05;97554.72;;;9.46;100.00
57114;BME280;42994;51.606;9.988;2023-04-24T04:36:33;97558.00;;;9.48;100.00
57114;BME280;42994;51.606;9.988;2023-04-24T04:39:12;97560.81;;;9.53;100.00
57114;BME280;42994;51.606;9.988;2023-04-24T04:42:09;97568.19;;;9.57;100.00
57114;BME280;42994;51.606;9.988;2023-04-24T04:44:41;97553.25;;;9.50;100.00
57114;BME280;42994;51.606;9.988;2023-04-24T04:47:13;97558.06;;;9.59;100.00
57114;BME280;42994;51.606;9.988;2023-04-24T04:49:40;97563.72;;;9.51;100.00
57114;BME280;42994;51.606;9.988;2023-04-24T04:52:15;97561.84;;;9.52;100.00
57114;BME280;42994;51.606;9.988;2023-04-24T04:54:43;97562.66;;;9.52;100.00
57114;BME280;42994;51.606;9.988;2023-04-24T04:57:10;97569.44;;;9.55;100.00
57114;BME280;42994;51.606;9.988;2023-04-24T04:59:37;97571.44;;;9.59;100.00
57114;BME280;42994;51.606;9.988;2023-04-24T05:02:11;97573.53;;;9.57;100.00
57114;BME280;42994;51.606;9.988;2023-04-24T05:04:37;97573.97;;;9.54;100.00
57114;BME280;42994;51.606;9.988;2023-04-24T05:07:04;97570.84;;;9.57;100.00
57114;BME280;42994;51.606;9.988;2023-04-24T05:09:34;97572.72;;;9.57;100.00
57114;BME280;42994;51.606;9.988;2023-04-24T05:12:12;97571.97;;;9.68;100.00
57114;BME280;42994;51.606;9.988;2023-04-24T05:14:55;97590.41;;;9.76;100.00
57114;BME280;42994;51.606;9.988;2023-04-24T05:17:37;97575.19;;;9.77;100.00
57114;BME280;42994;51.606;9.988;2023-04-24T05:20:09;97581.34;;;9.77;100.00
57114;BME280;42994;51.606;9.988;2023-04-24T05:22:40;97586.50;;;9.79;100.00
57114;BME280;42994;51.606;9.988;2023-04-24T05:25:10;97587.47;;;9.85;100.00
57114;BME280;42994;51.606;9.988;2023-04-24T05:27:58;97582.69;;;9.87;100.00
57114;BME280;42994;51.606;9.988;2023-04-24T05:33:28;97590.28;;;9.90;100.00
57114;BME280;42994;51.606;9.988;2023-04-24T05:36:00;97602.63;;;9.91;100.00
57114;BME280;42994;51.606;9.988;2023-04-24T05:38:40;97592.88;;;9.96;100.00
57114;BME280;42994;51.606;9.988;2023-04-24T05:41:27;97606.03;;;9.98;100.00
57114;BME280;42994;51.606;9.988;2023-04-24T05:44:19;97608.66;;;10.05;100.00
57114;BME280;42994;51.606;9.988;2023-04-24T05:46:59;97614.41;;;10.08;100.00
57114;BME280;42994;51.606;9.988;2023-04-24T05:49:37;97614.97;;;10.10;100.00
57114;BME280;42994;51.606;9.988;2023-04-24T05:52:08;97612.53;;;10.09;100.00
57114;BME280;42994;51.606;9.988;2023-04-24T05:54:39;97624.50;;;10.06;100.00
57114;BME280;42994;51.606;9.988;2023-04-24T05:57:19;97619.53;;;10.10;100.00
57114;BME280;42994;51.606;9.988;2023-04-24T06:00:32;97637.53;;;10.21;100.00
57114;BME280;42994;51.606;9.988;2023-04-24T06:03:23;97621.16;;;10.29;100.00
57114;BME280;42994;51.606;9.988;2023-04-24T06:06:06;97637.88;;;10.31;100.00
57114;BME280;42994;51.606;9.988;2023-04-24T06:08:36;97620.13;;;10.30;100.00
57114;BME280;42994;51.606;9.988;2023-04-24T06:11:03;97625.06;;;10.33;100.00
57114;BME280;42994;51.606;9.988;2023-04-24T06:13:31;97634.28;;;10.37;100.00
57114;BME280;42994;51.606;9.988;2023-04-24T06:16:20;97636.41;;;10.47;100.00
57114;BME280;42994;51.606;9.988;2023-04-24T06:18:57;97631.53;;;10.44;100.00
57114;BME280;42994;51.606;9.988;2023-04-24T06:21:27;97634.69;;;10.53;100.00
57114;BME280;42994;51.606;9.988;2023-04-24T06:23:54;97641.13;;;10.52;100.00
57114;BME280;42994;51.606;9.988;2023-04-24T06:26:22;97638.25;;;10.65;100.00
57114;BME280;42994;51.606;9.988;2023-04-24T06:28:50;97638.97;;;10.61;100.00
57114;BME280;42994;51.606;9.988;2023-04-24T06:31:18;97648.09;;;10.53;100.00
57114;BME280;42994;51.606;9.988;2023-04-24T06:33:45;97651.09;;;10.45;100.00
57114;BME280;42994;51.606;9.988;2023-04-24T06:36:11;97665.03;;;10.35;100.00
57114;BME280;42994;51.606;9.988;2023-04-24T06:38:39;97676.03;;;9.76;100.00
57114;BME280;42994;51.606;9.988;2023-04-24T06:41:06;97687.47;;;9.65;100.00
57114;BME280;42994;51.606;9.988;2023-04-24T06:43:33;97683.03;;;9.77;100.00
57114;BME280;42994;51.606;9.988;2023-04-24T06:45:59;97688.91;;;9.68;100.00
57114;BME280;42994;51.606;9.988;2023-04-24T06:48:28;97692.94;;;9.77;100.00
57114;BME280;42994;51.606;9.988;2023-04-24T06:50:55;97695.22;;;9.73;100.00
57114;BME280;42994;51.606;9.988;2023-04-24T06:53:22;97695.22;;;9.73;100.00
57114;BME280;42994;51.606;9.988;2023-04-24T06:55:49;97700.78;;;9.72;100.00
57114;BME280;42994;51.606;9.988;2023-04-24T06:58:16;97696.59;;;9.82;100.00
57114;BME280;42994;51.606;9.988;2023-04-24T07:00:43;97704.06;;;9.99;100.00
57114;BME280;42994;51.606;9.988;2023-04-24T07:03:09;97705.66;;;9.81;100.00
57114;BME280;42994;51.606;9.988;2023-04-24T07:05:36;97718.44;;;10.05;100.00
57114;BME280;42994;51.606;9.988;2023-04-24T07:08:03;97704.38;;;10.09;100.00
57114;BME280;42994;51.606;9.988;2023-04-24T07:10:32;97715.06;;;10.09;100.00
57114;BME280;42994;51.606;9.988;2023-04-24T07:13:02;97706.41;;;10.14;100.00
57114;BME280;42994;51.606;9.988;2023-04-24T07:15:28;97720.88;;;10.06;100.00
57114;BME280;42994;51.606;9.988;2023-04-24T07:17:55;97715.06;;;10.09;100.00
57114;BME280;42994;51.606;9.988;2023-04-24T07:20:22;97712.25;;;10.04;100.00
57114;BME280;42994;51.606;9.988;2023-04-24T07:22:49;97713.50;;;10.01;100.00
57114;BME280;42994;51.606;9.988;2023-04-24T07:25:17;97719.44;;;10.04;100.00
57114;BME280;42994;51.606;9.988;2023-04-24T07:27:43;97717.44;;;10.24;100.00
57114;BME280;42994;51.606;9.988;2023-04-24T07:30:12;97722.31;;;10.27;100.00
57114;BME280;42994;51.606;9.988;2023-04-24T07:32:39;97727.13;;;10.44;100.00
57114;BME280;42994;51.606;9.988;2023-04-24T07:35:06;97720.81;;;10.38;100.00
57114;BME280;42994;51.606;9.988;2023-04-24T07:37:34;97723.19;;;10.03;100.00
57114;BME280;42994;51.606;9.988;2023-04-24T07:40:01;97729.47;;;10.15;100.00
57114;BME280;42994;51.606;9.988;2023-04-24T07:42:29;97729.66;;;9.95;100.00
57114;BME280;42994;51.606;9.988;2023-04-24T07:44:56;97739.03;;;10.04;100.00
57114;BME280;42994;51.606;9.988;2023-04-24T07:47:24;97725.66;;;10.04;100.00
57114;BME280;42994;51.606;9.988;2023-04-24T07:49:50;97725.13;;;10.39;100.00
57114;BME280;42994;51.606;9.988;2023-04-24T07:52:17;97716.94;;;10.71;100.00
57114;BME280;42994;51.606;9.988;2023-04-24T07:54:44;97713.16;;;10.60;100.00
57114;BME280;42994;51.606;9.988;2023-04-24T07:57:10;97715.66;;;10.36;100.00
57114;BME280;42994;51.606;9.988;2023-04-24T07:59:39;97721.28;;;10.53;100.00
57114;BME280;42994;51.606;9.988;2023-04-24T08:02:09;97719.47;;;10.66;100.00
57114;BME280;42994;51.606;9.988;2023-04-24T08:04:39;97723.22;;;10.65;100.00
57114;BME280;42994;51.606;9.988;2023-04-24T08:07:09;97727.13;;;10.99;100.00
57114;BME280;42994;51.606;9.988;2023-04-24T08:09:38;97734.84;;;11.07;100.00
57114;BME280;42994;51.606;9.988;2023-04-24T08:12:06;97731.22;;;11.02;100.00
57114;BME280;42994;51.606;9.988;2023-04-24T08:14:37;97742.78;;;10.84;100.00
57114;BME280;42994;51.606;9.988;2023-04-24T08:17:04;97743.78;;;11.20;100.00
57114;BME280;42994;51.606;9.988;2023-04-24T08:19:35;97742.06;;;11.37;100.00
57114;BME280;42994;51.606;9.988;2023-04-24T08:22:06;97757.22;;;11.31;100.00
57114;BME280;42994;51.606;9.988;2023-04-24T08:24:35;97750.22;;;11.30;100.00
57114;BME280;42994;51.606;9.988;2023-04-24T08:27:03;97742.06;;;11.37;100.00
57114;BME280;42994;51.606;9.988;2023-04-24T08:29:32;97748.19;;;11.14;100.00
57114;BME280;42994;51.606;9.988;2023-04-24T08:32:01;97739.25;;;11.02;100.00
57114;BME280;42994;51.606;9.988;2023-04-24T08:34:31;97749.69;;;11.40;100.00
57114;BME280;42994;51.606;9.988;2023-04-24T08:36:59;97749.78;;;11.76;100.00
57114;BME280;42994;51.606;9.988;2023-04-24T08:39:27;97752.78;;;12.33;100.00
57114;BME280;42994;51.606;9.988;2023-04-24T08:41:57;97755.13;;;12.18;100.00
57114;BME280;42994;51.606;9.988;2023-04-24T08:44:33;97759.91;;;12.51;100.00
57114;BME280;42994;51.606;9.988;2023-04-24T08:47:00;97761.44;;;11.69;100.00
57114;BME280;42994;51.606;9.988;2023-04-24T08:49:28;97761.78;;;12.03;100.00
57114;BME280;42994;51.606;9.988;2023-04-24T08:51:56;97763.69;;;11.84;100.00
57114;BME280;42994;51.606;9.988;2023-04-24T08:54:23;97775.66;;;11.58;100.00
57114;BME280;42994;51.606;9.988;2023-04-24T08:56:56;97773.69;;;11.65;100.00
57114;BME280;42994;51.606;9.988;2023-04-24T08:59:28;97782.94;;;11.21;100.00
57114;BME280;42994;51.606;9.988;2023-04-24T09:01:55;97772.16;;;11.69;100.00
57114;BME280;42994;51.606;9.988;2023-04-24T09:04:22;97778.91;;;11.60;100.00
57114;BME280;42994;51.606;9.988;2023-04-24T09:06:50;97777.91;;;11.73;100.00
57114;BME280;42994;51.606;9.988;2023-04-24T09:09:17;97776.69;;;11.57;100.00
57114;BME280;42994;51.606;9.988;2023-04-24T09:11:44;97780.41;;;11.26;100.00
57114;BME280;42994;51.606;9.988;2023-04-24T09:14:17;97787.03;;;11.53;100.00
57114;BME280;42994;51.606;9.988;2023-04-24T09:16:44;97782.53;;;11.54;100.00
57114;BME280;42994;51.606;9.988;2023-04-24T09:19:11;97788.56;;;11.49;100.00
57114;BME280;42994;51.606;9.988;2023-04-24T09:21:38;97794.94;;;11.67;100.00
57114;BME280;42994;51.606;9.988;2023-04-24T09:24:08;97781.66;;;11.72;100.00
57114;BME280;42994;51.606;9.988;2023-04-24T09:26:43;97789.78;;;11.65;100.00
57114;BME280;42994;51.606;9.988;2023-04-24T09:29:14;97787.03;;;11.72;100.00
57114;BME280;42994;51.606;9.988;2023-04-24T09:31:45;97798.53;;;11.30;100.00
57114;BME280;42994;51.606;9.988;2023-04-24T09:34:12;97798.88;;;11.64;100.00
57114;BME280;42994;51.606;9.988;2023-04-24T09:36:47;97787.97;;;11.78;100.00
57114;BME280;42994;51.606;9.988;2023-04-24T09:39:18;97800.91;;;11.81;100.00
57114;BME280;42994;51.606;9.988;2023-04-24T09:41:58;97803.09;;;12.02;100.00
57114;BME280;42994;51.606;9.988;2023-04-24T09:44:36;97800.13;;;11.50;100.00
57114;BME280;42994;51.606;9.988;2023-04-24T09:47:10;97804.03;;;11.35;100.00
57114;BME280;42994;51.606;9.988;2023-04-24T09:49:47;97802.34;;;10.86;100.00
57114;BME280;42994;51.606;9.988;2023-04-24T09:52:15;97803.88;;;11.30;100.00
57114;BME280;42994;51.606;9.988;2023-04-24T09:54:52;97794.56;;;11.63;100.00
57114;BME280;42994;51.606;9.988;2023-04-24T09:57:24;97792.84;;;11.69;100.00
57114;BME280;42994;51.606;9.988;2023-04-24T09:59:54;97796.19;;;11.64;100.00
57114;BME280;42994;51.606;9.988;2023-04-24T10:02:25;97794.88;;;11.55;100.00
57114;BME280;42994;51.606;9.988;2023-04-24T10:04:55;97780.97;;;11.46;100.00
57114;BME280;42994;51.606;9.988;2023-04-24T10:07:25;97792.88;;;11.02;100.00
57114;BME280;42994;51.606;9.988;2023-04-24T10:09:58;97787.94;;;11.35;100.00
57114;BME280;42994;51.606;9.988;2023-04-24T10:12:26;97791.31;;;11.61;100.00
57114;BME280;42994;51.606;9.988;2023-04-24T10:14:56;97784.66;;;11.64;100.00
57114;BME280;42994;51.606;9.988;2023-04-24T10:17:36;97791.34;;;11.24;100.00
57114;BME280;42994;51.606;9.988;2023-04-24T10:20:08;97800.03;;;11.26;100.00
57114;BME280;42994;51.606;9.988;2023-04-24T10:22:35;97786.56;;;11.45;100.00
57114;BME280;42994;51.606;9.988;2023-04-24T10:25:04;97787.16;;;11.47;100.00
57114;BME280;42994;51.606;9.988;2023-04-24T10:27:36;97788.19;;;11.46;100.00
57114;BME280;42994;51.606;9.988;2023-04-24T10:30:05;97785.50;;;11.46;100.00
57114;BME280;42994;51.606;9.988;2023-04-24T10:32:34;97789.66;;;11.30;100.00
57114;BME280;42994;51.606;9.988;2023-04-24T10:35:01;97789.28;;;11.26;100.00
57114;BME280;42994;51.606;9.988;2023-04-24T10:37:28;97785.56;;;11.09;100.00
57114;BME280;42994;51.606;9.988;2023-04-24T10:40:01;97794.03;;;11.24;100.00
57114;BME280;42994;51.606;9.988;2023-04-24T10:42:28;97788.03;;;11.10;100.00
57114;BME280;42994;51.606;9.988;2023-04-24T10:45:05;97789.75;;;11.23;100.00
57114;BME280;42994;51.606;9.988;2023-04-24T10:47:51;97782.78;;;11.34;100.00
57114;BME280;42994;51.606;9.988;2023-04-24T10:50:22;97790.72;;;11.41;100.00
57114;BME280;42994;51.606;9.988;2023-04-24T10:53:06;97781.25;;;11.26;100.00
57114;BME280;42994;51.606;9.988;2023-04-24T10:55:41;97782.69;;;11.10;100.00
57114;BME280;42994;51.606;9.988;2023-04-24T10:58:11;97775.38;;;11.48;100.00
57114;BME280;42994;51.606;9.988;2023-04-24T11:00:55;97782.88;;;11.58;100.00
57114;BME280;42994;51.606;9.988;2023-04-24T11:03:26;97785.94;;;11.61;100.00
57114;BME280;42994;51.606;9.988;2023-04-24T11:05:56;97779.06;;;11.77;100.00
57114;BME280;42994;51.606;9.988;2023-04-24T11:08:28;97784.78;;;11.39;100.00
57114;BME280;42994;51.606;9.988;2023-04-24T11:10:57;97783.97;;;11.38;100.00
57114;BME280;42994;51.606;9.988;2023-04-24T11:13:26;97782.25;;;11.44;100.00
57114;BME280;42994;51.606;9.988;2023-04-24T11:16:20;97791.94;;;11.45;100.00
57114;BME280;42994;51.606;9.988;2023-04-24T11:18:52;97785.50;;;11.15;100.00
57114;BME280;42994;51.606;9.988;2023-04-24T11:21:31;97789.66;;;11.60;100.00
57114;BME280;42994;51.606;9.988;2023-04-24T11:24:35;97781.38;;;11.92;100.00
57114;BME280;42994;51.606;9.988;2023-04-24T11:27:12;97789.31;;;11.99;100.00
57114;BME280;42994;51.606;9.988;2023-04-24T11:29:45;97788.06;;;12.13;100.00
57114;BME280;42994;51.606;9.988;2023-04-24T11:32:23;97796.34;;;12.00;100.00
57114;BME280;42994;51.606;9.988;2023-04-24T11:34:55;97793.19;;;11.72;100.00
57114;BME280;42994;51.606;9.988;2023-04-24T11:38:17;97785.09;;;11.61;100.00
57114;BME280;42994;51.606;9.988;2023-04-24T12:18:52;97870.59;;;10.65;100.00
57114;BME280;42994;51.606;9.988;2023-04-24T12:22:05;97854.47;;;10.46;100.00
57114;BME280;42994;51.606;9.988;2023-04-24T12:25:31;97869.69;;;10.71;100.00
57114;BME280;42994;51.606;9.988;2023-04-24T12:31:44;97892.50;;;10.55;100.00
57114;BME280;42994;51.606;9.988;2023-04-24T12:34:28;97899.53;;;10.56;100.00
57114;BME280;42994;51.606;9.988;2023-04-24T12:39:04;97907.53;;;10.63;100.00
57114;BME280;42994;51.606;9.988;2023-04-24T12:41:16;97910.47;;;10.23;100.00
57114;BME280;42994;51.606;9.988;2023-04-24T12:47:54;97923.75;;;9.66;100.00
57114;BME280;42994;51.606;9.988;2023-04-24T12:51:15;97932.34;;;9.74;100.00
57114;BME280;42994;51.606;9.988;2023-04-24T12:54:05;97943.16;;;9.41;100.00
57114;BME280;42994;51.606;9.988;2023-04-24T12:57:16;97960.47;;;9.25;100.00
57114;BME280;42994;51.606;9.988;2023-04-24T12:59:50;97970.38;;;8.98;100.00
57114;BME280;42994;51.606;9.988;2023-04-24T13:02:50;97966.72;;;8.79;100.00
57114;BME280;42994;51.606;9.988;2023-04-24T13:09:45;97963.44;;;8.77;100.00
57114;BME280;42994;51.606;9.988;2023-04-24T13:19:56;97967.72;;;9.04;100.00
57114;BME280;42994;51.606;9.988;2023-04-24T13:23:11;97966.91;;;8.77;100.00
57114;BME280;42994;51.606;9.988;2023-04-24T13:26:39;97970.41;;;8.51;100.00
57114;BME280;42994;51.606;9.988;2023-04-24T13:29:15;97970.63;;;8.56;100.00
57114;BME280;42994;51.606;9.988;2023-04-24T13:32:01;97975.34;;;8.68;100.00
57114;BME280;42994;51.606;9.988;2023-04-24T13:34:27;97980.25;;;8.44;100.00
57114;BME280;42994;51.606;9.988;2023-04-24T13:37:08;97976.25;;;8.13;100.00
57114;BME280;42994;51.606;9.988;2023-04-24T13:43:14;97987.53;;;8.02;100.00
57114;BME280;42994;51.606;9.988;2023-04-24T13:45:47;97997.31;;;7.88;100.00
57114;BME280;42994;51.606;9.988;2023-04-24T13:51:37;98006.63;;;8.05;100.00
57114;BME280;42994;51.606;9.988;2023-04-24T13:54:07;98007.41;;;7.93;100.00
57114;BME280;42994;51.606;9.988;2023-04-24T13:56:39;98001.09;;;8.07;100.00
57114;BME280;42994;51.606;9.988;2023-04-24T13:59:11;98008.91;;;8.15;100.00
57114;BME280;42994;51.606;9.988;2023-04-24T14:01:41;98005.59;;;8.00;100.00
57114;BME280;42994;51.606;9.988;2023-04-24T14:04:08;98004.38;;;8.16;100.00
57114;BME280;42994;51.606;9.988;2023-04-24T14:13:59;98018.00;;;7.79;100.00
57114;BME280;42994;51.606;9.988;2023-04-24T14:20:36;98020.47;;;7.81;100.00
57114;BME280;42994;51.606;9.988;2023-04-24T14:23:13;98026.59;;;7.75;100.00
57114;BME280;42994;51.606;9.988;2023-04-24T14:26:10;98028.22;;;7.69;100.00
57114;BME280;42994;51.606;9.988;2023-04-24T14:28:39;98038.59;;;7.50;100.00
57114;BME280;42994;51.606;9.988;2023-04-24T14:31:37;98032.31;;;7.65;100.00
57114;BME280;42994;51.606;9.988;2023-04-24T14:34:43;98036.19;;;7.62;100.00
57114;BME280;42994;51.606;9.988;2023-04-24T14:41:54;98037.41;;;7.60;100.00
57114;BME280;42994;51.606;9.988;2023-04-24T14:44:24;98034.56;;;7.61;100.00
57114;BME280;42994;51.606;9.988;2023-04-24T14:47:05;98046.66;;;7.64;100.00